Hlavní strana
METAR-TAF:

METAR-TAF

Letiště :

Indianapolis, Indiana, Spojené státy americké

zeměpisná šířka: 39-50-37N, zeměpisná délka: 085-53-49W, výška: 263 m

Aktuální stav počasí

Zpráva byla vytvořena před 21 hodinami a 18 minutami, v 00:17 UTC
Jižní vítr 4 kt
Teplota 25°C
Vlhkost vzduchu 94%
Tlak 1011 hPa
Viditelnost: 16.1 km
Jasno

METAR: KMQJ 210017Z AUTO 17004KT 10SM CLR 25/24 A2984 RMK AO1

Čas: 15:35 (21:35 UTC)


TAF: chybějící

Stav a předpovědi počasí z více než 4 000 letišť (zprávy METAR a TAF).

Červené a žluté tečky na mapě představují dostupné meteorologické stanice.

Když kurzor umístíte na tečku, zobrazí se název stanice.

Pak kliknutím zobrazíte stav a předpověď počasí.

Chcete-li změnit mapu, kliknutím na zelené tlačítko se znaménkem +mapu přiblížíte, kliknutím na zelené tlačítko se znaménkem – mapu oddálíte a kliknutím na zelené šipky přejdete na sousední mapy.


METAR-TAF: